Tiskilwa, Illinois
Current Conditions -  °F | °C
As of 11:55 AM on Friday 28 Nov 2014 (Local Time) from KVYS Reporting Station
Broken Clouds Broken Clouds  
Wind Chill: 21°   Ceiling: 12000
Heat Index: 32°   Visibility: 10mi
Dew Point: 26°   Wind: 16mph
Humidity: 79%   Direction: 160°SSE
Pressure: 30.06"   Gusts: NA
Location:  41.29°N, 89.51°W
Report Text: KVYS 281755Z AUTO 16014KT 10SM SCT016 BKN120 00/M03 A3006 RMK AO2 T00011031 10001 21072
Loading
Personal Weather Stations






























Interactive Weather Map New forecast layout! Learn more

10-Day Weather Forecast

Advertisements
Track Severe Weather on mobile